createdAt,value
2022-07-29T00:01:32.608Z,88.00
2022-07-29T00:04:00.863Z,89.67
2022-07-29T00:06:29.136Z,89.34
2022-07-29T00:08:57.318Z,89.67
2022-07-29T00:11:26.800Z,89.50
2022-07-29T00:13:54.940Z,90.29
2022-07-29T00:16:24.071Z,90.21
2022-07-29T00:18:52.590Z,90.75
2022-07-29T00:21:20.764Z,91.04
2022-07-29T00:23:48.909Z,92.03
2022-07-29T00:26:17.133Z,92.72
2022-07-29T00:28:46.680Z,92.16
2022-07-29T00:31:15.042Z,91.94
2022-07-29T00:33:43.339Z,92.30
2022-07-29T00:36:10.547Z,93.71
2022-07-29T00:38:38.685Z,93.04
2022-07-29T00:41:06.862Z,92.30
2022-07-29T00:43:35.008Z,93.33
2022-07-29T00:46:04.607Z,93.66
2022-07-29T00:48:33.265Z,92.78
2022-07-29T00:51:04.027Z,93.47
2022-07-29T00:53:34.058Z,93.53
2022-07-29T00:56:02.383Z,93.57
2022-07-29T00:58:30.655Z,94.59
2022-07-29T01:01:00.015Z,94.04
2022-07-29T01:03:29.576Z,93.56
2022-07-29T01:05:58.177Z,93.59
2022-07-29T01:08:26.539Z,93.44
2022-07-29T01:10:56.017Z,92.93
2022-07-29T01:13:24.876Z,92.61
2022-07-29T01:15:58.486Z,93.33
2022-07-29T01:18:35.578Z,92.83
2022-07-29T01:21:26.685Z,92.60
2022-07-29T01:24:10.957Z,92.86
2022-07-29T01:26:47.550Z,93.09
2022-07-29T01:29:26.590Z,92.96
2022-07-29T01:32:03.499Z,93.30
2022-07-29T01:34:40.111Z,93.69
2022-07-29T01:37:14.696Z,94.39
2022-07-29T01:39:46.691Z,93.69
2022-07-29T01:42:22.052Z,92.94
2022-07-29T01:44:57.885Z,94.07
2022-07-29T01:47:33.650Z,94.02
2022-07-29T01:50:09.503Z,94.51
2022-07-29T01:52:41.624Z,95.14
2022-07-29T01:55:16.009Z,95.85
2022-07-29T01:57:46.483Z,95.99
2022-07-29T02:00:18.078Z,95.55
2022-07-29T02:02:49.415Z,96.39
2022-07-29T02:05:20.726Z,95.48
2022-07-29T02:07:51.055Z,94.47
2022-07-29T02:10:26.084Z,95.58
2022-07-29T02:12:56.973Z,96.05
2022-07-29T02:15:29.177Z,95.91
2022-07-29T02:18:01.938Z,95.63
2022-07-29T02:20:31.914Z,95.98
2022-07-29T02:23:01.469Z,97.48
2022-07-29T02:25:36.989Z,97.94
2022-07-29T02:28:08.452Z,97.53
2022-07-29T02:30:42.319Z,97.41
2022-07-29T02:33:14.068Z,97.92
2022-07-29T02:35:43.814Z,98.45
2022-07-29T02:38:33.104Z,97.38
2022-07-29T02:41:03.145Z,98.01
2022-07-29T02:43:33.208Z,98.12
2022-07-29T02:46:04.588Z,99.42
2022-07-29T02:48:47.380Z,98.86
2022-07-29T02:51:41.427Z,98.61
2022-07-29T02:54:12.519Z,98.28
2022-07-29T02:56:42.528Z,99.05
2022-07-29T02:59:15.737Z,99.28
2022-07-29T03:01:47.224Z,98.40
2022-07-29T03:04:17.655Z,98.13
2022-07-29T03:06:46.810Z,98.25
2022-07-29T03:09:15.975Z,98.83
2022-07-29T03:11:50.412Z,98.96
2022-07-29T03:14:21.513Z,99.38
2022-07-29T03:16:52.597Z,100.00
2022-07-29T03:19:22.105Z,100.00
2022-07-29T03:21:50.620Z,100.00
2022-07-29T03:24:31.849Z,100.00
2022-07-29T03:27:00.532Z,100.00
2022-07-29T03:29:33.690Z,100.00
2022-07-29T03:32:08.426Z,100.00
2022-07-29T03:34:38.834Z,100.00
2022-07-29T03:37:08.540Z,100.00
2022-07-29T03:39:41.218Z,100.00
2022-07-29T03:42:12.460Z,100.00
2022-07-29T03:44:43.637Z,100.00
2022-07-29T03:47:16.370Z,100.00
2022-07-29T03:49:48.441Z,100.00
2022-07-29T03:52:17.278Z,100.00
2022-07-29T03:54:45.661Z,100.00
2022-07-29T03:57:14.514Z,99.99
2022-07-29T03:59:44.126Z,100.00
2022-07-29T04:02:14.947Z,100.00
2022-07-29T04:04:45.870Z,99.50
2022-07-29T04:07:14.688Z,99.34
2022-07-29T04:09:43.696Z,97.68
2022-07-29T04:12:12.284Z,96.57
2022-07-29T04:14:40.473Z,96.08
2022-07-29T04:17:08.799Z,96.67
2022-07-29T04:19:38.407Z,96.59
2022-07-29T04:22:06.605Z,96.46
2022-07-29T04:24:34.758Z,95.47
2022-07-29T04:27:02.907Z,94.17
2022-07-29T04:29:31.472Z,93.59
2022-07-29T04:31:59.637Z,92.69
2022-07-29T04:34:28.280Z,92.85
2022-07-29T04:36:58.067Z,92.17
2022-07-29T04:39:27.261Z,92.42
2022-07-29T04:41:58.975Z,91.68
2022-07-29T04:44:28.583Z,91.78
2022-07-29T04:46:58.585Z,91.76
2022-07-29T04:49:27.019Z,92.16
2022-07-29T04:51:55.694Z,91.77
2022-07-29T04:54:25.648Z,92.25
2022-07-29T04:56:54.637Z,91.86
2022-07-29T04:59:22.959Z,92.37
2022-07-29T05:01:51.128Z,93.28
2022-07-29T05:04:19.971Z,92.25
2022-07-29T05:06:49.905Z,92.60
2022-07-29T05:09:18.119Z,90.93
2022-07-29T05:11:47.616Z,90.34
2022-07-29T05:14:16.176Z,89.84
2022-07-29T05:16:44.563Z,89.70
2022-07-29T05:19:14.573Z,89.27
2022-07-29T05:21:43.305Z,89.03
2022-07-29T05:24:11.542Z,88.19
2022-07-29T05:26:39.984Z,87.73
2022-07-29T05:29:44.221Z,87.03
2022-07-29T05:32:06.750Z,86.67
2022-07-29T05:34:35.042Z,86.39
2022-07-29T05:37:03.290Z,86.93
2022-07-29T05:39:47.359Z,86.86
2022-07-29T05:42:19.149Z,86.73
2022-07-29T05:44:48.391Z,86.55
2022-07-29T05:47:17.962Z,86.60
2022-07-29T05:49:47.041Z,86.73
2022-07-29T05:52:15.373Z,87.08
2022-07-29T05:54:43.852Z,86.34
2022-07-29T05:57:17.575Z,86.60
2022-07-29T05:59:45.921Z,86.62
2022-07-29T06:02:14.141Z,85.74
2022-07-29T06:04:43.772Z,84.39
2022-07-29T06:07:12.332Z,83.54
2022-07-29T06:09:40.627Z,85.06
2022-07-29T06:12:09.102Z,85.37
2022-07-29T06:14:38.859Z,85.08
2022-07-29T06:17:07.436Z,85.21
2022-07-29T06:19:37.211Z,85.75
2022-07-29T06:22:06.840Z,85.49
2022-07-29T06:24:35.029Z,86.15
2022-07-29T06:27:03.274Z,85.69
2022-07-29T06:29:31.725Z,85.42
2022-07-29T06:31:59.884Z,84.38
2022-07-29T06:34:28.166Z,84.81
2022-07-29T06:36:56.514Z,83.96
2022-07-29T06:39:26.144Z,82.78
2022-07-29T06:41:54.980Z,83.31
2022-07-29T06:44:26.664Z,82.19
2022-07-29T06:46:55.749Z,82.43
2022-07-29T06:49:25.367Z,81.92
2022-07-29T06:51:53.757Z,82.22
2022-07-29T06:54:22.648Z,81.03
2022-07-29T06:56:52.337Z,80.85
2022-07-29T06:59:26.246Z,80.67
2022-07-29T07:01:59.046Z,80.29
2022-07-29T07:04:27.236Z,79.57
2022-07-29T07:06:56.559Z,79.35
2022-07-29T07:09:24.693Z,79.22
2022-07-29T07:12:09.854Z,79.11
2022-07-29T07:14:38.033Z,79.14
2022-07-29T07:17:07.956Z,79.19
2022-07-29T07:19:36.229Z,79.18
2022-07-29T07:22:04.408Z,78.99
2022-07-29T07:24:33.062Z,78.13
2022-07-29T07:27:01.228Z,77.75
2022-07-29T07:29:30.806Z,77.64
2022-07-29T07:32:01.321Z,76.22
2022-07-29T07:34:31.013Z,76.36
2022-07-29T07:36:59.262Z,75.49
2022-07-29T07:39:27.846Z,74.87
2022-07-29T07:41:56.050Z,73.21
2022-07-29T07:44:24.540Z,73.13
2022-07-29T07:46:54.684Z,71.80
2022-07-29T07:49:23.196Z,72.75
2022-07-29T07:51:51.547Z,73.16
2022-07-29T07:54:20.880Z,70.89
2022-07-29T07:56:53.126Z,70.31
2022-07-29T07:59:21.999Z,69.36
2022-07-29T08:01:56.187Z,68.43
2022-07-29T08:04:28.737Z,66.68
2022-07-29T08:06:58.022Z,65.08
2022-07-29T08:09:30.343Z,65.57
2022-07-29T08:11:59.851Z,64.08
2022-07-29T08:14:28.034Z,64.32
2022-07-29T08:16:56.234Z,64.08
2022-07-29T08:19:26.133Z,63.29
2022-07-29T08:21:54.904Z,64.21
2022-07-29T08:24:40.745Z,63.71
2022-07-29T08:27:26.893Z,63.22
2022-07-29T08:29:57.623Z,62.58
2022-07-29T08:32:50.890Z,62.84
2022-07-29T08:35:15.333Z,60.93
2022-07-29T08:37:43.467Z,59.29
2022-07-29T08:40:13.503Z,58.86
2022-07-29T08:42:41.911Z,59.14
2022-07-29T08:45:10.988Z,60.42
2022-07-29T08:47:41.352Z,57.80
2022-07-29T08:50:11.247Z,57.83
2022-07-29T08:52:42.576Z,58.25
2022-07-29T08:55:12.082Z,57.91
2022-07-29T08:57:50.793Z,58.21
2022-07-29T09:00:20.445Z,57.27
2022-07-29T09:02:53.186Z,57.36
2022-07-29T09:05:21.998Z,56.18
2022-07-29T09:07:52.217Z,54.47
2022-07-29T09:10:20.397Z,54.31
2022-07-29T09:12:49.749Z,54.87
2022-07-29T09:15:19.574Z,55.01
2022-07-29T09:17:48.944Z,55.38
2022-07-29T09:20:19.827Z,55.67
2022-07-29T09:22:50.509Z,55.01
2022-07-29T09:28:13.946Z,55.68
2022-07-29T09:30:53.059Z,54.54
2022-07-29T09:33:22.112Z,54.22
2022-07-29T09:36:01.853Z,55.07
2022-07-29T09:38:30.390Z,56.16
2022-07-29T09:40:59.895Z,56.20
2022-07-29T09:43:35.959Z,55.76
2022-07-29T09:46:14.708Z,55.00
2022-07-29T09:48:42.948Z,55.88
2022-07-29T09:51:21.539Z,54.56
2022-07-29T09:53:53.033Z,54.94
2022-07-29T09:56:21.958Z,54.22
2022-07-29T09:59:07.808Z,54.99
2022-07-29T10:01:36.921Z,54.01
2022-07-29T10:04:05.475Z,55.60
2022-07-29T10:06:33.732Z,56.33
2022-07-29T10:09:11.407Z,56.06
2022-07-29T10:11:49.273Z,56.88
2022-07-29T10:14:19.935Z,57.08
2022-07-29T10:16:48.536Z,56.32
2022-07-29T10:19:16.924Z,57.01
2022-07-29T10:21:45.846Z,57.36
2022-07-29T10:24:14.929Z,57.47
2022-07-29T10:26:43.922Z,57.90
2022-07-29T10:29:12.143Z,56.93
2022-07-29T10:31:50.581Z,55.41
2022-07-29T10:34:32.867Z,55.47
2022-07-29T10:37:10.560Z,57.29
2022-07-29T10:39:54.271Z,56.50
2022-07-29T10:42:34.101Z,55.51
2022-07-29T10:45:04.560Z,55.36
2022-07-29T10:47:35.067Z,55.33
2022-07-29T10:50:05.760Z,54.41
2022-07-29T10:52:57.567Z,55.61
2022-07-29T10:55:37.659Z,53.40
2022-07-29T10:58:18.061Z,52.89
2022-07-29T11:00:49.369Z,52.90
2022-07-29T11:03:50.790Z,53.34
2022-07-29T11:06:26.682Z,54.16
2022-07-29T11:09:18.094Z,54.01
2022-07-29T11:11:51.502Z,54.51
2022-07-29T11:14:20.093Z,54.79
2022-07-29T11:17:07.385Z,53.75
2022-07-29T11:19:40.271Z,53.00
2022-07-29T11:22:11.428Z,52.63
2022-07-29T11:24:49.309Z,53.67
2022-07-29T11:27:21.160Z,54.03
2022-07-29T11:29:52.156Z,52.99
2022-07-29T11:32:23.640Z,52.13
2022-07-29T11:35:17.258Z,53.14
2022-07-29T11:37:52.830Z,52.84
2022-07-29T11:40:25.990Z,52.77
2022-07-29T11:42:55.055Z,51.87
2022-07-29T11:45:41.477Z,52.07
2022-07-29T11:48:30.009Z,51.53
2022-07-29T11:51:03.071Z,51.85
2022-07-29T11:53:33.029Z,52.03
2022-07-29T11:56:02.667Z,51.20
2022-07-29T11:58:32.756Z,51.74
2022-07-29T12:01:04.656Z,50.12
2022-07-29T12:03:35.896Z,50.13
2022-07-29T12:06:15.022Z,49.71
2022-07-29T12:08:45.076Z,48.23
2022-07-29T12:11:22.450Z,48.89
2022-07-29T12:13:52.249Z,48.54
2022-07-29T12:16:25.722Z,47.94
2022-07-29T12:19:02.473Z,48.84
2022-07-29T12:21:53.792Z,48.38
2022-07-29T12:24:26.510Z,47.35
2022-07-29T12:26:57.080Z,47.98
2022-07-29T12:29:35.155Z,48.29
2022-07-29T12:32:05.376Z,48.27
2022-07-29T12:34:34.327Z,46.05
2022-07-29T12:37:04.467Z,45.68
2022-07-29T12:39:32.838Z,46.10
2022-07-29T12:42:03.853Z,46.81
2022-07-29T12:44:46.350Z,46.42
2022-07-29T12:47:14.596Z,47.52
2022-07-29T12:49:43.099Z,46.90
2022-07-29T12:52:30.259Z,47.33
2022-07-29T12:54:58.854Z,46.16
2022-07-29T12:57:27.634Z,46.32
2022-07-29T13:00:08.680Z,48.59
2022-07-29T13:02:37.933Z,47.40
2022-07-29T13:05:09.206Z,47.45
2022-07-29T13:07:55.805Z,47.52
2022-07-29T13:10:25.846Z,46.13
2022-07-29T13:13:04.628Z,46.47
2022-07-29T13:15:33.638Z,45.03
2022-07-29T13:18:01.947Z,46.03
2022-07-29T13:20:31.678Z,46.75
2022-07-29T13:23:02.397Z,47.18
2022-07-29T13:25:32.633Z,46.54
2022-07-29T13:28:01.719Z,46.42
2022-07-29T13:30:30.153Z,46.00
2022-07-29T13:32:58.380Z,46.17
2022-07-29T13:35:26.835Z,46.11
2022-07-29T13:37:55.084Z,46.46
2022-07-29T13:40:24.707Z,45.68
2022-07-29T13:42:52.866Z,46.47
2022-07-29T13:45:21.046Z,46.65
2022-07-29T13:47:49.581Z,46.07
2022-07-29T13:50:17.859Z,45.67
2022-07-29T13:52:45.987Z,45.70
2022-07-29T13:55:14.297Z,45.35
2022-07-29T13:57:43.832Z,45.04
2022-07-29T14:00:13.021Z,45.80
2022-07-29T14:02:41.166Z,45.86
2022-07-29T14:05:10.786Z,46.34
2022-07-29T14:07:40.393Z,46.82
2022-07-29T14:10:09.227Z,46.88
2022-07-29T14:12:37.363Z,46.43
2022-07-29T14:15:07.824Z,45.87
2022-07-29T14:17:36.192Z,46.01
2022-07-29T14:20:05.072Z,46.06
2022-07-29T14:22:36.074Z,46.00
2022-07-29T14:25:14.671Z,45.88
2022-07-29T14:27:44.441Z,45.38
2022-07-29T14:30:15.029Z,44.56
2022-07-29T14:32:43.377Z,43.57
2022-07-29T14:35:11.726Z,43.70
2022-07-29T14:37:41.430Z,43.94
2022-07-29T14:40:11.273Z,44.16
2022-07-29T14:42:40.042Z,43.19
2022-07-29T14:45:09.855Z,43.13
2022-07-29T14:47:40.484Z,42.64
2022-07-29T14:50:09.662Z,42.58
2022-07-29T14:52:38.353Z,43.32
2022-07-29T14:55:16.696Z,42.35
2022-07-29T14:57:48.105Z,42.56
2022-07-29T15:00:16.704Z,41.27
2022-07-29T15:03:01.475Z,41.25
2022-07-29T15:05:31.089Z,42.42
2022-07-29T15:07:59.882Z,40.73
2022-07-29T15:10:28.190Z,38.70
2022-07-29T15:12:56.725Z,38.69
2022-07-29T15:15:25.072Z,40.03
2022-07-29T15:17:54.589Z,41.30
2022-07-29T15:20:26.113Z,38.63
2022-07-29T15:22:56.350Z,37.06
2022-07-29T15:25:24.597Z,36.00
2022-07-29T15:27:55.667Z,33.25
2022-07-29T15:30:30.922Z,34.09
2022-07-29T15:33:03.371Z,34.50
2022-07-29T15:35:31.620Z,34.83
2022-07-29T15:37:59.877Z,34.84
2022-07-29T15:40:28.031Z,35.25
2022-07-29T15:42:56.492Z,35.39
2022-07-29T15:45:24.885Z,35.49
2022-07-29T15:47:53.099Z,35.09
2022-07-29T15:50:22.731Z,35.30
2022-07-29T15:52:50.885Z,35.15
2022-07-29T15:55:19.189Z,36.31
2022-07-29T15:57:47.396Z,33.98
2022-07-29T16:00:17.499Z,35.15
2022-07-29T16:02:46.163Z,36.00
2022-07-29T16:05:14.314Z,35.39
2022-07-29T16:07:43.812Z,35.29
2022-07-29T16:10:12.292Z,35.92
2022-07-29T16:12:40.437Z,36.13
2022-07-29T16:15:10.839Z,35.57
2022-07-29T16:17:39.323Z,36.72
2022-07-29T16:20:08.761Z,36.68
2022-07-29T16:22:38.707Z,36.81
2022-07-29T16:25:09.573Z,36.30
2022-07-29T16:27:38.269Z,36.10
2022-07-29T16:30:09.570Z,37.07
2022-07-29T16:32:38.057Z,37.57
2022-07-29T16:35:07.382Z,38.05
2022-07-29T16:37:37.163Z,37.39
2022-07-29T16:40:07.120Z,37.74
2022-07-29T16:42:46.515Z,37.95
2022-07-29T16:45:15.762Z,38.19
2022-07-29T16:47:44.280Z,37.41
2022-07-29T16:50:12.562Z,37.62
2022-07-29T16:52:40.930Z,39.09
2022-07-29T16:55:09.505Z,40.30
2022-07-29T16:57:39.318Z,41.19
2022-07-29T17:00:08.785Z,41.39
2022-07-29T17:02:38.655Z,41.87
2022-07-29T17:05:07.873Z,42.02
2022-07-29T17:07:36.140Z,42.29
2022-07-29T17:10:07.963Z,42.72
2022-07-29T17:12:39.891Z,42.78
2022-07-29T17:15:10.444Z,42.82
2022-07-29T17:17:55.158Z,43.12
2022-07-29T17:20:26.693Z,43.71
2022-07-29T17:22:55.135Z,43.21
2022-07-29T17:25:24.741Z,43.21
2022-07-29T17:28:00.496Z,43.67
2022-07-29T17:30:29.505Z,44.13
2022-07-29T17:32:57.873Z,44.37
2022-07-29T17:35:43.703Z,44.21
2022-07-29T17:38:11.908Z,44.96
2022-07-29T17:40:40.058Z,45.24
2022-07-29T17:43:10.180Z,44.47
2022-07-29T17:45:49.829Z,45.17
2022-07-29T17:48:19.264Z,44.82
2022-07-29T17:50:48.567Z,45.08
2022-07-29T17:53:17.065Z,44.70
2022-07-29T17:55:46.230Z,45.37
2022-07-29T17:58:16.793Z,45.50
2022-07-29T18:00:45.111Z,45.54
2022-07-29T18:03:13.489Z,45.49
2022-07-29T18:05:42.434Z,46.35
2022-07-29T18:08:11.007Z,46.50
2022-07-29T18:10:39.342Z,46.03
2022-07-29T18:13:07.834Z,46.52
2022-07-29T18:15:37.518Z,46.98
2022-07-29T18:18:05.869Z,46.62
2022-07-29T18:20:34.827Z,47.35
2022-07-29T18:23:03.325Z,47.24
2022-07-29T18:25:31.506Z,47.18
2022-07-29T18:28:01.054Z,47.30
2022-07-29T18:30:29.442Z,47.91
2022-07-29T18:33:20.104Z,47.92
2022-07-29T18:35:48.301Z,47.71
2022-07-29T18:38:16.713Z,47.82
2022-07-29T18:40:45.806Z,48.17
2022-07-29T18:43:14.541Z,48.21
2022-07-29T18:45:42.753Z,48.31
2022-07-29T18:48:13.145Z,48.74
2022-07-29T18:50:41.982Z,48.81
2022-07-29T18:53:10.301Z,49.16
2022-07-29T18:55:38.550Z,49.22
2022-07-29T18:58:06.804Z,48.73
2022-07-29T19:00:35.362Z,49.23
2022-07-29T19:03:04.274Z,49.78
2022-07-29T19:05:34.230Z,49.95
2022-07-29T19:08:02.472Z,49.64
2022-07-29T19:10:31.253Z,49.73
2022-07-29T19:12:59.439Z,49.98
2022-07-29T19:15:28.007Z,50.09
2022-07-29T19:18:00.825Z,50.00
2022-07-29T19:20:29.429Z,50.39
2022-07-29T19:22:59.021Z,50.63
2022-07-29T19:25:27.305Z,50.43
2022-07-29T19:27:55.488Z,50.76
2022-07-29T19:30:23.878Z,51.02
2022-07-29T19:32:52.179Z,51.51
2022-07-29T19:35:28.249Z,51.53
2022-07-29T19:37:58.777Z,51.81
2022-07-29T19:40:29.516Z,51.90
2022-07-29T19:42:57.972Z,52.13
2022-07-29T19:45:26.570Z,52.83
2022-07-29T19:48:00.736Z,52.55
2022-07-29T19:50:29.769Z,52.85
2022-07-29T19:52:58.329Z,53.10
2022-07-29T19:55:28.742Z,52.66
2022-07-29T19:57:58.920Z,52.94
2022-07-29T20:00:28.446Z,53.72
2022-07-29T20:02:58.861Z,53.44
2022-07-29T20:07:56.935Z,53.84
2022-07-29T20:10:25.354Z,54.01
2022-07-29T20:12:55.301Z,53.94
2022-07-29T20:15:23.965Z,54.28
2022-07-29T20:17:56.761Z,54.43
2022-07-29T20:20:26.600Z,54.62
2022-07-29T20:22:55.252Z,54.88
2022-07-29T20:25:23.842Z,54.78
2022-07-29T20:27:53.135Z,54.89
2022-07-29T20:30:23.336Z,55.70
2022-07-29T20:32:52.301Z,55.42
2022-07-29T20:35:22.339Z,55.48
2022-07-29T20:37:56.059Z,56.05
2022-07-29T20:40:25.475Z,55.75
2022-07-29T20:42:53.832Z,56.13
2022-07-29T20:45:23.972Z,56.00
2022-07-29T20:47:52.670Z,56.06
2022-07-29T20:50:24.012Z,56.32
2022-07-29T20:52:53.211Z,56.24
2022-07-29T20:55:21.996Z,56.12
2022-07-29T20:57:50.523Z,56.07
2022-07-29T21:00:19.073Z,56.32
2022-07-29T21:02:48.689Z,56.27
2022-07-29T21:05:17.082Z,56.50
2022-07-29T21:07:45.264Z,56.33
2022-07-29T21:10:14.315Z,56.78
2022-07-29T21:12:42.959Z,57.09
2022-07-29T21:15:13.544Z,56.93
2022-07-29T21:17:46.764Z,57.10
2022-07-29T21:20:17.944Z,56.98
2022-07-29T21:22:46.757Z,56.71
2022-07-29T21:25:15.059Z,57.58
2022-07-29T21:28:00.802Z,57.67
2022-07-29T21:30:29.003Z,57.64
2022-07-29T21:32:57.231Z,57.46
2022-07-29T21:36:01.887Z,57.75
2022-07-29T21:38:16.326Z,57.99
2022-07-29T21:40:45.088Z,58.30
2022-07-29T21:43:13.802Z,58.64
2022-07-29T21:45:43.729Z,58.52
2022-07-29T21:48:11.954Z,58.84
2022-07-29T21:50:41.468Z,59.31
2022-07-29T21:53:11.132Z,59.83
2022-07-29T21:55:42.294Z,59.85
2022-07-29T21:58:11.199Z,59.70
2022-07-29T22:00:39.419Z,59.88
2022-07-29T22:03:08.682Z,59.93
2022-07-29T22:05:36.965Z,60.48
2022-07-29T22:08:06.730Z,59.91
2022-07-29T22:10:35.652Z,59.93
2022-07-29T22:13:04.101Z,59.79
2022-07-29T22:15:32.504Z,59.53
2022-07-29T22:18:00.884Z,60.03
2022-07-29T22:20:29.553Z,59.84
2022-07-29T22:22:57.799Z,59.41
2022-07-29T22:25:27.308Z,60.30
2022-07-29T22:27:55.460Z,60.01
2022-07-29T22:30:23.845Z,60.74
2022-07-29T22:32:52.416Z,59.82
2022-07-29T22:35:20.627Z,60.23
2022-07-29T22:37:48.769Z,59.89
2022-07-29T22:40:16.939Z,59.86
2022-07-29T22:42:46.428Z,60.26
2022-07-29T22:45:14.628Z,60.01
2022-07-29T22:47:47.899Z,59.85
2022-07-29T22:50:17.312Z,60.01
2022-07-29T22:52:45.925Z,60.11
2022-07-29T22:55:14.402Z,60.30
2022-07-29T22:57:42.675Z,60.16
2022-07-29T23:00:14.180Z,60.21
2022-07-29T23:02:42.454Z,60.50
2022-07-29T23:05:11.295Z,60.94
2022-07-29T23:07:39.519Z,60.85
2022-07-29T23:10:08.631Z,60.76
2022-07-29T23:12:37.234Z,60.89
2022-07-29T23:15:06.014Z,60.64
2022-07-29T23:17:36.276Z,60.59
2022-07-29T23:20:07.670Z,60.85
2022-07-29T23:22:36.101Z,60.82
2022-07-29T23:25:06.202Z,61.38
2022-07-29T23:27:34.506Z,61.24
2022-07-29T23:30:02.946Z,61.09
2022-07-29T23:32:31.213Z,61.63
2022-07-29T23:35:00.745Z,62.24
2022-07-29T23:37:28.889Z,61.90
2022-07-29T23:39:57.252Z,62.39
2022-07-29T23:42:25.426Z,62.41
2022-07-29T23:44:53.608Z,62.58
2022-07-29T23:47:22.697Z,62.52
2022-07-29T23:49:50.897Z,62.87
2022-07-29T23:52:20.394Z,64.29
2022-07-29T23:54:48.576Z,64.51
2022-07-29T23:57:16.722Z,65.00
2022-07-29T23:59:44.870Z,65.50
